Time,TemperatureF,DewpointF,PressureIn,WindDirection,WindDirectionDegrees,WindSpeedMPH,WindSpeedGustMPH,Humidity,HourlyPrecipIn,Conditions,Clouds,dailyrainin,SoftwareType,DateUTC
2013-03-21 00:03:00,33.0,25.0,-100.00,NNW,328,9.0,14.0,74,0.00,,,0.00,,2013-03-21 04:03:00,
2013-03-21 00:13:00,33.0,25.0,-100.00,NNW,328,9.0,14.0,74,0.00,,,0.00,,2013-03-21 04:13:00,
2013-03-21 00:23:00,33.0,25.0,-100.00,NNW,329,9.0,15.0,74,0.00,,,0.00,,2013-03-21 04:23:00,
2013-03-21 00:33:00,33.0,25.0,-100.00,NW,326,9.0,15.0,74,0.00,,,0.00,,2013-03-21 04:33:00,
2013-03-21 00:43:00,33.0,25.0,-100.00,NW,326,9.0,15.0,74,0.00,,,0.00,,2013-03-21 04:43:00,
2013-03-21 00:53:00,33.0,25.0,-100.00,NNW,330,9.0,15.0,73,0.00,,,0.00,,2013-03-21 04:53:00,
2013-03-21 01:03:00,33.0,26.0,-100.00,NNW,328,10.0,19.0,75,0.00,,,0.00,,2013-03-21 05:03:00,
2013-03-21 01:13:00,33.0,26.0,-100.00,NNW,328,10.0,19.0,75,0.00,,,0.00,,2013-03-21 05:13:00,
2013-03-21 01:22:00,33.0,26.0,-100.00,NNW,332,8.0,15.0,76,0.00,,,0.00,,2013-03-21 05:22:00,
2013-03-21 01:33:00,33.0,26.0,-100.00,NNW,332,8.0,15.0,76,0.00,,,0.00,,2013-03-21 05:33:00,
2013-03-21 01:44:00,33.0,26.0,-100.00,NNW,332,8.0,15.0,76,0.00,,,0.00,,2013-03-21 05:44:00,
2013-03-21 01:52:00,32.0,25.0,-100.00,NNW,328,8.0,15.0,74,0.00,,,0.00,,2013-03-21 05:52:00,
2013-03-21 02:03:00,32.0,24.0,-100.00,NW,323,10.0,17.0,73,0.00,,,0.00,,2013-03-21 06:03:00,
2013-03-21 02:12:00,32.0,24.0,-100.00,NW,323,10.0,17.0,73,0.00,,,0.00,,2013-03-21 06:12:00,
2013-03-21 02:22:00,32.0,24.0,-100.00,NNW,332,6.0,13.0,73,0.00,,,0.00,,2013-03-21 06:22:00,
2013-03-21 02:32:00,32.0,24.0,-100.00,NNW,329,7.0,15.0,71,0.00,,,0.00,,2013-03-21 06:32:00,
2013-03-21 02:42:00,32.0,24.0,-100.00,NNW,329,7.0,15.0,71,0.00,,,0.00,,2013-03-21 06:42:00,
2013-03-21 02:52:00,32.0,23.0,-100.00,NNW,330,7.0,14.0,70,0.00,,,0.00,,2013-03-21 06:52:00,
2013-03-21 03:02:00,31.0,22.0,-100.00,NNW,329,7.0,13.0,67,0.00,,,0.00,,2013-03-21 07:02:00,
2013-03-21 03:13:00,31.0,22.0,-100.00,NNW,329,7.0,13.0,67,0.00,,,0.00,,2013-03-21 07:13:00,
2013-03-21 03:22:00,31.0,21.0,-100.00,NNW,332,6.0,14.0,68,0.00,,,0.00,,2013-03-21 07:22:00,
2013-03-21 03:32:00,31.0,22.0,-100.00,NNW,332,5.0,11.0,69,0.00,,,0.00,,2013-03-21 07:32:00,
2013-03-21 03:42:00,31.0,22.0,-100.00,NNW,332,5.0,11.0,69,0.00,,,0.00,,2013-03-21 07:42:00,
2013-03-21 03:53:00,30.0,22.0,-100.00,NNW,335,5.0,11.0,73,0.00,,,0.00,,2013-03-21 07:53:00,
2013-03-21 04:02:00,30.0,22.0,-100.00,NNW,335,5.0,11.0,73,0.00,,,0.00,,2013-03-21 08:02:00,
2013-03-21 04:13:00,30.0,22.0,-100.00,NNW,335,5.0,11.0,73,0.00,,,0.00,,2013-03-21 08:13:00,
2013-03-21 04:23:00,30.0,19.0,-100.00,NNW,333,6.0,16.0,63,0.00,,,0.00,,2013-03-21 08:23:00,
2013-03-21 04:33:00,30.0,19.0,-100.00,NNW,336,5.0,9.0,63,0.00,,,0.00,,2013-03-21 08:33:00,
2013-03-21 04:42:00,30.0,19.0,-100.00,NNW,336,5.0,9.0,63,0.00,,,0.00,,2013-03-21 08:42:00,
2013-03-21 04:52:00,29.0,22.0,-100.00,NNW,336,4.0,12.0,74,0.00,,,0.00,,2013-03-21 08:52:00,
2013-03-21 05:02:00,29.0,22.0,-100.00,NW,325,5.0,11.0,76,0.00,,,0.00,,2013-03-21 09:02:00,
2013-03-21 05:11:00,29.0,22.0,-100.00,NW,325,5.0,11.0,76,0.00,,,0.00,,2013-03-21 09:11:00,
2013-03-21 05:22:00,29.0,22.0,-100.00,NNW,329,5.0,8.0,75,0.00,,,0.00,,2013-03-21 09:22:00,
2013-03-21 05:33:00,29.0,21.0,-100.00,NNW,330,5.0,12.0,71,0.00,,,0.00,,2013-03-21 09:33:00,
2013-03-21 05:43:00,29.0,21.0,-100.00,NNW,330,5.0,12.0,71,0.00,,,0.00,,2013-03-21 09:43:00,
2013-03-21 05:53:00,29.0,19.0,-100.00,NNW,330,5.0,11.0,66,0.00,,,0.00,,2013-03-21 09:53:00,
2013-03-21 06:03:00,28.0,18.0,-100.00,NNW,330,5.0,11.0,65,0.00,,,0.00,,2013-03-21 10:03:00,
2013-03-21 06:12:00,28.0,18.0,-100.00,NNW,330,5.0,11.0,65,0.00,,,0.00,,2013-03-21 10:12:00,
2013-03-21 06:23:00,28.0,18.0,-100.00,NNW,335,4.0,9.0,66,0.00,,,0.00,,2013-03-21 10:23:00,
2013-03-21 06:34:00,28.0,18.0,-100.00,NNW,333,4.0,9.0,66,0.00,,,0.00,,2013-03-21 10:34:00,
2013-03-21 06:42:00,28.0,18.0,-100.00,NNW,333,4.0,9.0,66,0.00,,,0.00,,2013-03-21 10:42:00,
2013-03-21 06:53:00,27.0,17.0,-100.00,NNW,332,5.0,11.0,66,0.00,,,0.00,,2013-03-21 10:53:00,
2013-03-21 07:03:00,26.0,16.0,-100.00,NNW,333,5.0,10.0,65,0.00,,,0.00,,2013-03-21 11:03:00,
2013-03-21 07:13:00,26.0,16.0,-100.00,NNW,333,5.0,10.0,65,0.00,,,0.00,,2013-03-21 11:13:00,
2013-03-21 07:22:00,26.0,16.0,-100.00,NNW,337,4.0,11.0,66,0.00,,,0.00,,2013-03-21 11:22:00,
2013-03-21 07:33:00,26.0,16.0,-100.00,NNW,332,4.0,8.0,66,0.00,,,0.00,,2013-03-21 11:33:00,
2013-03-21 07:43:00,26.0,16.0,-100.00,NNW,332,4.0,8.0,66,0.00,,,0.00,,2013-03-21 11:43:00,
2013-03-21 07:53:00,25.0,16.0,-100.00,NNW,339,4.0,8.0,67,0.00,,,0.00,,2013-03-21 11:53:00,
2013-03-21 08:03:00,25.0,15.0,-100.00,NNW,330,5.0,12.0,66,0.00,,,0.00,,2013-03-21 12:03:00,
2013-03-21 08:13:00,25.0,15.0,-100.00,NNW,330,5.0,12.0,66,0.00,,,0.00,,2013-03-21 12:13:00,
2013-03-21 08:22:00,25.0,15.0,-100.00,NNW,330,5.0,13.0,66,0.00,,,0.00,,2013-03-21 12:22:00,
2013-03-21 08:33:00,25.0,15.0,-100.00,NNW,336,4.0,9.0,66,0.00,,,0.00,,2013-03-21 12:33:00,
2013-03-21 08:43:00,25.0,15.0,-100.00,NNW,336,4.0,9.0,66,0.00,,,0.00,,2013-03-21 12:43:00,
2013-03-21 08:53:00,25.0,15.0,-100.00,NNW,335,4.0,10.0,64,0.00,,,0.00,,2013-03-21 12:53:00,
2013-03-21 09:03:00,26.0,15.0,-100.00,NNW,333,5.0,13.0,63,0.00,,,0.00,,2013-03-21 13:03:00,
2013-03-21 09:12:00,26.0,15.0,-100.00,NNW,333,5.0,13.0,63,0.00,,,0.00,,2013-03-21 13:12:00,
2013-03-21 09:22:00,27.0,15.0,-100.00,NNW,330,7.0,13.0,62,0.00,,,0.00,,2013-03-21 13:22:00,
2013-03-21 09:32:00,27.0,15.0,-100.00,NNW,328,9.0,19.0,60,0.00,,,0.00,,2013-03-21 13:32:00,
2013-03-21 09:42:00,27.0,15.0,-100.00,NNW,328,9.0,19.0,60,0.00,,,0.00,,2013-03-21 13:42:00,
2013-03-21 09:53:00,27.0,13.0,-100.00,NNW,330,8.0,15.0,53,0.00,,,0.00,,2013-03-21 13:53:00,
2013-03-21 10:02:00,28.0,11.0,-100.00,NW,322,10.0,24.0,49,0.00,,,0.00,,2013-03-21 14:02:00,
2013-03-21 10:12:00,28.0,11.0,-100.00,NW,322,10.0,24.0,49,0.00,,,0.00,,2013-03-21 14:12:00,
2013-03-21 10:22:00,28.0,9.0,-100.00,NW,326,12.0,25.0,43,0.00,,,0.00,,2013-03-21 14:22:00,
2013-03-21 10:32:00,28.0,8.0,-100.00,NNW,330,9.0,20.0,43,0.00,,,0.00,,2013-03-21 14:32:00,
2013-03-21 10:42:00,28.0,8.0,-100.00,NNW,330,9.0,20.0,43,0.00,,,0.00,,2013-03-21 14:42:00,
2013-03-21 10:52:00,29.0,9.0,-100.00,NW,325,11.0,22.0,42,0.00,,,0.00,,2013-03-21 14:52:00,
2013-03-21 11:04:00,28.0,13.0,-100.00,NNW,328,11.0,24.0,53,0.00,,,0.00,,2013-03-21 15:04:00,
2013-03-21 11:12:00,28.0,13.0,-100.00,NNW,328,11.0,24.0,53,0.00,,,0.00,,2013-03-21 15:12:00,
2013-03-21 11:22:00,28.0,14.0,-100.00,NNW,330,10.0,19.0,54,0.00,,,0.00,,2013-03-21 15:22:00,
2013-03-21 11:33:00,28.0,10.0,-100.00,NNW,332,9.0,16.0,47,0.00,,,0.00,,2013-03-21 15:33:00,
2013-03-21 11:42:00,28.0,10.0,-100.00,NNW,332,9.0,16.0,47,0.00,,,0.00,,2013-03-21 15:42:00,
2013-03-21 11:53:00,28.0,10.0,-100.00,NNW,332,9.0,16.0,47,0.00,,,0.00,,2013-03-21 15:53:00,
2013-03-21 12:03:00,30.0,6.0,-100.00,NNW,328,11.0,23.0,35,0.00,,,0.00,,2013-03-21 16:03:00,
2013-03-21 12:13:00,30.0,6.0,-100.00,NNW,328,11.0,23.0,35,0.00,,,0.00,,2013-03-21 16:13:00,
2013-03-21 12:23:00,30.0,7.0,-100.00,NW,323,13.0,23.0,37,0.00,,,0.00,,2013-03-21 16:23:00,
2013-03-21 12:33:00,31.0,6.0,-100.00,NNW,328,11.0,20.0,33,0.00,,,0.00,,2013-03-21 16:33:00,
2013-03-21 12:42:00,31.0,6.0,-100.00,NNW,328,11.0,20.0,33,0.00,,,0.00,,2013-03-21 16:42:00,
2013-03-21 12:53:00,31.0,8.0,-100.00,NNW,329,10.0,20.0,37,0.00,,,0.00,,2013-03-21 16:53:00,
2013-03-21 13:03:00,30.0,10.0,-100.00,NNW,329,10.0,21.0,43,0.00,,,0.00,,2013-03-21 17:03:00,
2013-03-21 13:12:00,30.0,10.0,-100.00,NNW,329,10.0,21.0,43,0.00,,,0.00,,2013-03-21 17:12:00,
2013-03-21 13:23:00,31.0,9.0,-100.00,NNW,333,8.0,16.0,40,0.00,,,0.00,,2013-03-21 17:23:00,
2013-03-21 13:33:00,31.0,9.0,-100.00,NNW,333,8.0,16.0,40,0.00,,,0.00,,2013-03-21 17:33:00,
2013-03-21 13:43:00,31.0,9.0,-100.00,NNW,333,8.0,16.0,40,0.00,,,0.00,,2013-03-21 17:43:00,
2013-03-21 13:53:00,33.0,7.0,-100.00,NW,326,11.0,24.0,33,0.00,,,0.00,,2013-03-21 17:53:00,
2013-03-21 14:02:00,31.0,7.0,-100.00,NW,326,11.0,24.0,37,0.00,,,0.00,,2013-03-21 18:02:00,
2013-03-21 14:12:00,31.0,7.0,-100.00,NW,326,11.0,24.0,37,0.00,,,0.00,,2013-03-21 18:12:00,
2013-03-21 14:23:00,32.0,7.0,-100.00,NNW,329,10.0,21.0,34,0.00,,,0.00,,2013-03-21 18:23:00,
2013-03-21 14:32:00,33.0,8.0,-100.00,NNW,329,11.0,23.0,35,0.00,,,0.00,,2013-03-21 18:32:00,
2013-03-21 14:42:00,33.0,8.0,-100.00,NNW,329,11.0,23.0,35,0.00,,,0.00,,2013-03-21 18:42:00,
2013-03-21 14:52:00,31.0,7.0,-100.00,NNW,328,11.0,21.0,36,0.00,,,0.00,,2013-03-21 18:52:00,
2013-03-21 15:02:00,31.0,8.0,-100.00,NW,323,13.0,27.0,36,0.00,,,0.00,,2013-03-21 19:02:00,
2013-03-21 15:12:00,31.0,8.0,-100.00,NW,323,13.0,27.0,36,0.00,,,0.00,,2013-03-21 19:12:00,
2013-03-21 15:23:00,31.0,7.0,-100.00,NNW,328,11.0,24.0,36,0.00,,,0.00,,2013-03-21 19:23:00,
2013-03-21 15:32:00,32.0,6.0,-100.00,NNW,329,12.0,23.0,33,0.00,,,0.00,,2013-03-21 19:32:00,
2013-03-21 15:43:00,32.0,6.0,-100.00,NNW,329,12.0,23.0,33,0.00,,,0.00,,2013-03-21 19:43:00,
2013-03-21 15:53:00,31.0,7.0,-100.00,NW,325,13.0,28.0,36,0.00,,,0.00,,2013-03-21 19:53:00,
2013-03-21 16:02:00,30.0,7.0,-100.00,NW,325,12.0,26.0,38,0.00,,,0.00,,2013-03-21 20:02:00,
2013-03-21 16:13:00,30.0,7.0,-100.00,NW,325,12.0,26.0,38,0.00,,,0.00,,2013-03-21 20:13:00,
2013-03-21 16:23:00,32.0,9.0,-100.00,NW,325,12.0,25.0,38,0.00,,,0.00,,2013-03-21 20:23:00,
2013-03-21 16:33:00,31.0,10.0,-100.00,NW,325,12.0,29.0,41,0.00,,,0.00,,2013-03-21 20:33:00,
2013-03-21 16:42:00,31.0,10.0,-100.00,NW,325,12.0,29.0,41,0.00,,,0.00,,2013-03-21 20:42:00,
2013-03-21 16:53:00,30.0,9.0,-100.00,NW,318,15.0,25.0,40,0.00,,,0.00,,2013-03-21 20:53:00,
2013-03-21 17:03:00,30.0,7.0,-100.00,NW,319,15.0,29.0,38,0.00,,,0.00,,2013-03-21 21:03:00,
2013-03-21 17:12:00,30.0,7.0,-100.00,NW,319,15.0,29.0,38,0.00,,,0.00,,2013-03-21 21:12:00,
2013-03-21 17:23:00,30.0,6.0,-100.00,NW,322,15.0,27.0,35,0.00,,,0.00,,2013-03-21 21:23:00,
2013-03-21 17:33:00,29.0,7.0,-100.00,NW,326,12.0,23.0,39,0.00,,,0.00,,2013-03-21 21:33:00,
2013-03-21 17:43:00,29.0,7.0,-100.00,NW,326,12.0,23.0,39,0.00,,,0.00,,2013-03-21 21:43:00,
2013-03-21 17:53:00,30.0,9.0,-100.00,NW,326,10.0,19.0,40,0.00,,,0.00,,2013-03-21 21:53:00,
2013-03-21 18:03:00,29.0,8.0,-100.00,NNW,328,11.0,27.0,41,0.00,,,0.00,,2013-03-21 22:03:00,
2013-03-21 18:13:00,29.0,8.0,-100.00,NNW,328,11.0,27.0,41,0.00,,,0.00,,2013-03-21 22:13:00,
2013-03-21 18:23:00,29.0,8.0,-100.00,NNW,328,9.0,19.0,40,0.00,,,0.00,,2013-03-21 22:23:00,
2013-03-21 18:33:00,30.0,7.0,-100.00,NW,325,11.0,28.0,38,0.00,,,0.00,,2013-03-21 22:33:00,
2013-03-21 18:42:00,30.0,7.0,-100.00,NW,325,11.0,28.0,38,0.00,,,0.00,,2013-03-21 22:42:00,
2013-03-21 18:53:00,31.0,8.0,-100.00,NNW,328,11.0,21.0,38,0.00,,,0.00,,2013-03-21 22:53:00,
2013-03-21 19:02:00,29.0,7.0,-100.00,NW,326,11.0,24.0,39,0.00,,,0.00,,2013-03-21 23:02:00,
2013-03-21 19:12:00,29.0,7.0,-100.00,NW,326,11.0,24.0,39,0.00,,,0.00,,2013-03-21 23:12:00,
2013-03-21 19:22:00,29.0,8.0,-100.00,NW,326,11.0,18.0,40,0.00,,,0.00,,2013-03-21 23:22:00,
2013-03-21 19:33:00,28.0,7.0,-100.00,NW,326,10.0,19.0,41,0.00,,,0.00,,2013-03-21 23:33:00,
2013-03-21 19:43:00,28.0,7.0,-100.00,NW,326,10.0,19.0,41,0.00,,,0.00,,2013-03-21 23:43:00,
2013-03-21 19:53:00,27.0,7.0,-100.00,NW,326,9.0,17.0,42,0.00,,,0.00,,2013-03-21 23:53:00,
2013-03-21 20:03:00,27.0,8.0,-100.00,NNW,328,9.0,15.0,44,0.00,,,0.00,,2013-03-22 00:03:00,
2013-03-21 20:13:00,27.0,8.0,-100.00,NNW,328,9.0,15.0,44,0.00,,,0.00,,2013-03-22 00:13:00,
2013-03-21 20:22:00,27.0,8.0,-100.00,NW,326,8.0,17.0,44,0.00,,,0.00,,2013-03-22 00:22:00,
2013-03-21 20:32:00,27.0,7.0,-100.00,NNW,330,9.0,16.0,43,0.00,,,0.00,,2013-03-22 00:32:00,
2013-03-21 20:42:00,27.0,7.0,-100.00,NNW,330,9.0,16.0,43,0.00,,,0.00,,2013-03-22 00:42:00,
2013-03-21 20:52:00,26.0,8.0,-100.00,NNW,328,10.0,18.0,46,0.00,,,0.00,,2013-03-22 00:52:00,
2013-03-21 21:03:00,26.0,8.0,-100.00,NNW,330,8.0,16.0,46,0.00,,,0.00,,2013-03-22 01:03:00,
2013-03-21 21:12:00,26.0,8.0,-100.00,NNW,330,8.0,16.0,46,0.00,,,0.00,,2013-03-22 01:12:00,
2013-03-21 21:22:00,26.0,9.0,-100.00,NNW,330,8.0,15.0,48,0.00,,,0.00,,2013-03-22 01:22:00,
2013-03-21 21:32:00,26.0,9.0,-100.00,NW,326,7.0,12.0,48,0.00,,,0.00,,2013-03-22 01:32:00,
2013-03-21 21:43:00,26.0,9.0,-100.00,NW,326,7.0,12.0,48,0.00,,,0.00,,2013-03-22 01:43:00,
2013-03-21 21:53:00,26.0,9.0,-100.00,NW,326,7.0,12.0,48,0.00,,,0.00,,2013-03-22 01:53:00,
2013-03-21 22:02:00,26.0,8.0,-100.00,NW,326,8.0,19.0,48,0.00,,,0.00,,2013-03-22 02:02:00,
2013-03-21 22:12:00,26.0,8.0,-100.00,NW,326,8.0,19.0,48,0.00,,,0.00,,2013-03-22 02:12:00,
2013-03-21 22:22:00,25.0,8.0,-100.00,NNW,329,6.0,13.0,48,0.00,,,0.00,,2013-03-22 02:22:00,
2013-03-21 22:32:00,25.0,9.0,-100.00,NNW,329,6.0,11.0,49,0.00,,,0.00,,2013-03-22 02:32:00,
2013-03-21 22:43:00,25.0,9.0,-100.00,NNW,329,6.0,11.0,49,0.00,,,0.00,,2013-03-22 02:43:00,
2013-03-21 22:53:00,25.0,10.0,-100.00,NNW,329,6.0,11.0,52,0.00,,,0.00,,2013-03-22 02:53:00,
2013-03-21 23:02:00,24.0,10.0,-100.00,NNW,333,5.0,9.0,53,0.00,,,0.00,,2013-03-22 03:02:00,
2013-03-21 23:12:00,24.0,10.0,-100.00,NNW,333,5.0,9.0,53,0.00,,,0.00,,2013-03-22 03:12:00,
2013-03-21 23:22:00,24.0,10.0,-100.00,NNW,336,5.0,10.0,53,0.00,,,0.00,,2013-03-22 03:22:00,
2013-03-21 23:33:00,25.0,10.0,-100.00,NNW,330,7.0,12.0,52,0.00,,,0.00,,2013-03-22 03:33:00,
2013-03-21 23:43:00,25.0,10.0,-100.00,NNW,330,7.0,12.0,52,0.00,,,0.00,,2013-03-22 03:43:00,
2013-03-21 23:53:00,25.0,10.0,-100.00,NNW,335,6.0,11.0,53,0.00,,,0.00,,2013-03-22 03:53:00,